Airfield :
LOGIN :

Register | Disclaimer

   EN    FR    IT 

 










Legend :    VFR   Marginal VFR   IFR   Intensive IFR   Very Intensive IFR
Visi :
Ceiling :
>= 8 km
>= 3000ft
5 to 8 km
1000 to 3000 ft
1500m to 5 km
500 to 1000 ft
800 to 1500m
200 to 500 ft
< 800m
< 200 ft
Symbols :   Thunderstorms  Fog  Heavy snow  Heavy precipitations  Wind > 20 kt
SIGMETs :     Misc.  Thunderstorms  Icing  Turbulence  Mountain Waves  Volcanic Ashes






- Airport Elevation : 235 ft
- IATA code : BZG


EPBY - Bydgoszcz

CURRENT METAR :
  • 220400Z 18003KT CAVOK 22/17 Q1007

EXPIRED METARs :
  • 220330Z 17003KT 140V210 CAVOK 21/16 Q1007
  • 220300Z 19003KT 150V220 CAVOK 21/16 Q1007
  • 220230Z 23003KT 190V280 CAVOK 20/15 Q1007
  • 220200Z VRB02KT CAVOK 21/15 Q1006
  • 220130Z 15005KT CAVOK 22/15 Q1006

TAF TAF EPBY
Valid from the 22 at 00:00 until the 23 at 00:00 UTC


212330Z 2200/2224 15006KT CAVOK
BECMG 2207/2209 35010KT
TEMPO 2209/2220 VRB15G30KT 4000 TSRA BKN026CB
PROB40
TEMPO 2211/2218 VRB18G35KT 1500 TSGR BKN015CB



MET'MAP, your aeronautical weather chart ! - Copyright ORBIFLY December 2007 - Disclaimer

ORBIFLY MET'MAP TEAM :

Programming & Development : Alexandra Zaïnal
Concept & original design : Baudouin d'Aumeries
Assistance for programming : Marc-Olivier Méhu
Technical & hardware support : Manuel Goepfert

Contact : metmap@orbifly.com




SOURCES & CREDITS :

   NOAA